sensor_id;sensor_type;location;lat;lon;timestamp;pressure;altitude;pressure_sealevel;temperature;humidity
4326;BME280;58429;49.826;10.880;2022-11-11T00:00:42;100144;;;5.53;80.8
4326;BME280;58429;49.826;10.880;2022-11-11T00:01:41;100143;;;5.46;80.61
4326;BME280;58429;49.826;10.880;2022-11-11T00:02:41;100141;;;5.49;80.57
4326;BME280;58429;49.826;10.880;2022-11-11T00:03:42;100136;;;5.48;80.53
4326;BME280;58429;49.826;10.880;2022-11-11T00:04:41;100139;;;5.45;80.53
4326;BME280;58429;49.826;10.880;2022-11-11T00:05:41;100136;;;5.46;80.52
4326;BME280;58429;49.826;10.880;2022-11-11T00:06:41;100136;;;5.44;80.47
4326;BME280;58429;49.826;10.880;2022-11-11T00:07:42;100130;;;5.45;80.52
4326;BME280;58429;49.826;10.880;2022-11-11T00:08:41;100129;;;5.43;80.73
4326;BME280;58429;49.826;10.880;2022-11-11T00:09:41;100124;;;5.4;80.58
4326;BME280;58429;49.826;10.880;2022-11-11T00:10:42;100129;;;5.39;80.67
4326;BME280;58429;49.826;10.880;2022-11-11T00:11:41;100132;;;5.39;80.85
4326;BME280;58429;49.826;10.880;2022-11-11T00:12:41;100131;;;5.34;80.72
4326;BME280;58429;49.826;10.880;2022-11-11T00:13:42;100122;;;5.34;80.69
4326;BME280;58429;49.826;10.880;2022-11-11T00:14:41;100121;;;5.34;80.67
4326;BME280;58429;49.826;10.880;2022-11-11T00:15:42;100124;;;5.3;80.7
4326;BME280;58429;49.826;10.880;2022-11-11T00:16:41;100124;;;5.28;80.84
4326;BME280;58429;49.826;10.880;2022-11-11T00:17:41;100120;;;5.31;80.83
4326;BME280;58429;49.826;10.880;2022-11-11T00:18:42;100124;;;5.29;80.85
4326;BME280;58429;49.826;10.880;2022-11-11T00:19:41;100120;;;5.22;80.98
4326;BME280;58429;49.826;10.880;2022-11-11T00:20:41;100126;;;5.23;80.9
4326;BME280;58429;49.826;10.880;2022-11-11T00:21:42;100124;;;5.13;80.97
4326;BME280;58429;49.826;10.880;2022-11-11T00:22:41;100130;;;5.11;81.3
4326;BME280;58429;49.826;10.880;2022-11-11T00:23:42;100124;;;5.08;81.46
4326;BME280;58429;49.826;10.880;2022-11-11T00:24:41;100134;;;5.05;81.37
4326;BME280;58429;49.826;10.880;2022-11-11T00:25:41;100128;;;5.07;81.19
4326;BME280;58429;49.826;10.880;2022-11-11T00:26:41;100132;;;5.06;81.23
4326;BME280;58429;49.826;10.880;2022-11-11T00:27:41;100137;;;4.98;81.4
4326;BME280;58429;49.826;10.880;2022-11-11T00:28:41;100127;;;4.93;81.49
4326;BME280;58429;49.826;10.880;2022-11-11T00:29:44;100128;;;4.89;81.59
4326;BME280;58429;49.826;10.880;2022-11-11T00:30:42;100128;;;4.86;81.75
4326;BME280;58429;49.826;10.880;2022-11-11T00:31:41;100133;;;4.83;81.77
4326;BME280;58429;49.826;10.880;2022-11-11T00:32:41;100136;;;4.83;81.55
4326;BME280;58429;49.826;10.880;2022-11-11T00:33:41;100141;;;4.82;81.44
4326;BME280;58429;49.826;10.880;2022-11-11T00:34:42;100133;;;4.81;81.41
4326;BME280;58429;49.826;10.880;2022-11-11T00:35:41;100143;;;4.82;81.27
4326;BME280;58429;49.826;10.880;2022-11-11T00:36:41;100146;;;4.82;81.23
4326;BME280;58429;49.826;10.880;2022-11-11T00:37:42;100148;;;4.8;81.15
4326;BME280;58429;49.826;10.880;2022-11-11T00:38:41;100146;;;4.79;81.16
4326;BME280;58429;49.826;10.880;2022-11-11T00:39:41;100147;;;4.79;81.12
4326;BME280;58429;49.826;10.880;2022-11-11T00:40:41;100149;;;4.79;81.11
4326;BME280;58429;49.826;10.880;2022-11-11T00:41:41;100155;;;4.81;81.07
4326;BME280;58429;49.826;10.880;2022-11-11T00:42:42;100159;;;4.78;81.04
4326;BME280;58429;49.826;10.880;2022-11-11T00:43:42;100157;;;4.78;81.02
4326;BME280;58429;49.826;10.880;2022-11-11T00:44:41;100163;;;4.78;80.97
4326;BME280;58429;49.826;10.880;2022-11-11T00:45:42;100159;;;4.75;80.91
4326;BME280;58429;49.826;10.880;2022-11-11T00:46:42;100164;;;4.76;80.83
4326;BME280;58429;49.826;10.880;2022-11-11T00:47:42;100165;;;4.77;80.75
4326;BME280;58429;49.826;10.880;2022-11-11T00:48:42;100169;;;4.77;80.77
4326;BME280;58429;49.826;10.880;2022-11-11T00:49:41;100161;;;4.76;80.83
4326;BME280;58429;49.826;10.880;2022-11-11T00:50:41;100166;;;4.75;80.9
4326;BME280;58429;49.826;10.880;2022-11-11T00:51:42;100170;;;4.76;80.95
4326;BME280;58429;49.826;10.880;2022-11-11T00:52:43;100179;;;4.74;81.03
4326;BME280;58429;49.826;10.880;2022-11-11T00:53:41;100182;;;4.76;81.13
4326;BME280;58429;49.826;10.880;2022-11-11T00:54:42;100172;;;4.73;81.12
4326;BME280;58429;49.826;10.880;2022-11-11T00:55:42;100173;;;4.74;81.04
4326;BME280;58429;49.826;10.880;2022-11-11T00:56:41;100172;;;4.72;80.93
4326;BME280;58429;49.826;10.880;2022-11-11T00:57:41;100180;;;4.7;80.89
4326;BME280;58429;49.826;10.880;2022-11-11T00:58:41;100181;;;4.72;80.99
4326;BME280;58429;49.826;10.880;2022-11-11T00:59:41;100178;;;4.69;81.14
4326;BME280;58429;49.826;10.880;2022-11-11T01:00:42;100183;;;4.72;81.3
4326;BME280;58429;49.826;10.880;2022-11-11T01:01:42;100182;;;4.71;81.35
4326;BME280;58429;49.826;10.880;2022-11-11T01:02:41;100181;;;4.72;81.29
4326;BME280;58429;49.826;10.880;2022-11-11T01:03:47;100183;;;4.71;81.26
4326;BME280;58429;49.826;10.880;2022-11-11T01:04:41;100183;;;4.68;81.34
4326;BME280;58429;49.826;10.880;2022-11-11T01:05:41;100176;;;4.71;81.29
4326;BME280;58429;49.826;10.880;2022-11-11T01:06:42;100176;;;4.66;81.25
4326;BME280;58429;49.826;10.880;2022-11-11T01:07:41;100181;;;4.67;81.23
4326;BME280;58429;49.826;10.880;2022-11-11T01:08:41;100180;;;4.65;81.29
4326;BME280;58429;49.826;10.880;2022-11-11T01:09:41;100187;;;4.65;81.29
4326;BME280;58429;49.826;10.880;2022-11-11T01:10:41;100179;;;4.65;81.36
4326;BME280;58429;49.826;10.880;2022-11-11T01:11:41;100173;;;4.62;81.37
4326;BME280;58429;49.826;10.880;2022-11-11T01:12:41;100178;;;4.65;81.35
4326;BME280;58429;49.826;10.880;2022-11-11T01:13:42;100184;;;4.61;81.39
4326;BME280;58429;49.826;10.880;2022-11-11T01:14:42;100188;;;4.6;81.45
4326;BME280;58429;49.826;10.880;2022-11-11T01:15:42;100186;;;4.61;81.37
4326;BME280;58429;49.826;10.880;2022-11-11T01:16:41;100183;;;4.61;81.33
4326;BME280;58429;49.826;10.880;2022-11-11T01:17:42;100186;;;4.57;81.3
4326;BME280;58429;49.826;10.880;2022-11-11T01:18:42;100189;;;4.58;81.29
4326;BME280;58429;49.826;10.880;2022-11-11T01:19:41;100182;;;4.53;81.23
4326;BME280;58429;49.826;10.880;2022-11-11T01:20:42;100181;;;4.52;81.28
4326;BME280;58429;49.826;10.880;2022-11-11T01:21:41;100192;;;4.49;81.27
4326;BME280;58429;49.826;10.880;2022-11-11T01:22:41;100195;;;4.48;81.29
4326;BME280;58429;49.826;10.880;2022-11-11T01:23:42;100190;;;4.43;81.33
4326;BME280;58429;49.826;10.880;2022-11-11T01:24:41;100196;;;4.38;81.37
4326;BME280;58429;49.826;10.880;2022-11-11T01:25:42;100197;;;4.35;81.5
4326;BME280;58429;49.826;10.880;2022-11-11T01:26:41;100200;;;4.36;81.81
4326;BME280;58429;49.826;10.880;2022-11-11T01:27:41;100199;;;4.35;81.86
4326;BME280;58429;49.826;10.880;2022-11-11T01:28:41;100197;;;4.34;81.94
4326;BME280;58429;49.826;10.880;2022-11-11T01:29:41;100203;;;4.33;82.06
4326;BME280;58429;49.826;10.880;2022-11-11T01:30:41;100198;;;4.33;82.11
4326;BME280;58429;49.826;10.880;2022-11-11T01:31:42;100196;;;4.31;82.09
4326;BME280;58429;49.826;10.880;2022-11-11T01:32:42;100193;;;4.33;82.32
4326;BME280;58429;49.826;10.880;2022-11-11T01:33:42;100194;;;4.32;82.38
4326;BME280;58429;49.826;10.880;2022-11-11T01:34:41;100193;;;4.22;82.39
4326;BME280;58429;49.826;10.880;2022-11-11T01:35:41;100195;;;4.23;82.45
4326;BME280;58429;49.826;10.880;2022-11-11T01:36:42;100198;;;4.18;82.52
4326;BME280;58429;49.826;10.880;2022-11-11T01:37:42;100197;;;4.12;82.55
4326;BME280;58429;49.826;10.880;2022-11-11T01:38:42;100196;;;4.11;82.56
4326;BME280;58429;49.826;10.880;2022-11-11T01:39:42;100196;;;4.13;82.42
4326;BME280;58429;49.826;10.880;2022-11-11T01:40:42;100198;;;4.12;82.46
4326;BME280;58429;49.826;10.880;2022-11-11T01:41:41;100194;;;4.08;82.48
4326;BME280;58429;49.826;10.880;2022-11-11T01:42:45;100198;;;4.04;82.51
4326;BME280;58429;49.826;10.880;2022-11-11T01:43:41;100194;;;4.02;82.48
4326;BME280;58429;49.826;10.880;2022-11-11T01:44:43;100191;;;3.99;82.49
4326;BME280;58429;49.826;10.880;2022-11-11T01:45:44;100192;;;3.94;82.47
4326;BME280;58429;49.826;10.880;2022-11-11T01:46:42;100197;;;3.97;82.42
4326;BME280;58429;49.826;10.880;2022-11-11T01:47:41;100198;;;3.92;82.41
4326;BME280;58429;49.826;10.880;2022-11-11T01:48:42;100196;;;3.9;82.4
4326;BME280;58429;49.826;10.880;2022-11-11T01:49:44;100195;;;3.9;82.32
4326;BME280;58429;49.826;10.880;2022-11-11T01:50:42;100197;;;3.91;82.31
4326;BME280;58429;49.826;10.880;2022-11-11T01:51:43;100191;;;3.89;82.28
4326;BME280;58429;49.826;10.880;2022-11-11T01:52:42;100188;;;3.91;82.24
4326;BME280;58429;49.826;10.880;2022-11-11T01:53:41;100192;;;3.91;82.17
4326;BME280;58429;49.826;10.880;2022-11-11T01:54:42;100192;;;3.87;82.21
4326;BME280;58429;49.826;10.880;2022-11-11T01:55:41;100190;;;3.85;82.17
4326;BME280;58429;49.826;10.880;2022-11-11T01:56:42;100191;;;3.87;82.13
4326;BME280;58429;49.826;10.880;2022-11-11T01:57:42;100187;;;3.87;82.12
4326;BME280;58429;49.826;10.880;2022-11-11T01:58:42;100188;;;3.85;82.13
4326;BME280;58429;49.826;10.880;2022-11-11T01:59:42;100195;;;3.86;82.15
4326;BME280;58429;49.826;10.880;2022-11-11T02:00:42;100196;;;3.87;82.17
4326;BME280;58429;49.826;10.880;2022-11-11T02:01:42;100196;;;3.86;82.19
4326;BME280;58429;49.826;10.880;2022-11-11T02:02:43;100196;;;3.86;82.17
4326;BME280;58429;49.826;10.880;2022-11-11T02:03:42;100191;;;3.87;82.2
4326;BME280;58429;49.826;10.880;2022-11-11T02:04:42;100199;;;3.87;82.27
4326;BME280;58429;49.826;10.880;2022-11-11T02:05:42;100200;;;3.9;82.32
4326;BME280;58429;49.826;10.880;2022-11-11T02:06:41;100195;;;3.91;82.38
4326;BME280;58429;49.826;10.880;2022-11-11T02:07:42;100188;;;3.93;82.43
4326;BME280;58429;49.826;10.880;2022-11-11T02:08:42;100195;;;3.95;82.43
4326;BME280;58429;49.826;10.880;2022-11-11T02:09:43;100185;;;3.94;82.52
4326;BME280;58429;49.826;10.880;2022-11-11T02:10:43;100190;;;3.94;82.53
4326;BME280;58429;49.826;10.880;2022-11-11T02:11:42;100188;;;3.9;82.79
4326;BME280;58429;49.826;10.880;2022-11-11T02:12:41;100186;;;3.89;82.73
4326;BME280;58429;49.826;10.880;2022-11-11T02:13:42;100183;;;3.89;82.73
4326;BME280;58429;49.826;10.880;2022-11-11T02:14:43;100185;;;3.93;82.66
4326;BME280;58429;49.826;10.880;2022-11-11T02:15:42;100185;;;3.94;82.63
4326;BME280;58429;49.826;10.880;2022-11-11T02:16:42;100180;;;3.94;82.62
4326;BME280;58429;49.826;10.880;2022-11-11T02:17:42;100180;;;3.93;82.6
4326;BME280;58429;49.826;10.880;2022-11-11T02:18:42;100180;;;3.94;82.61
4326;BME280;58429;49.826;10.880;2022-11-11T02:19:43;100185;;;3.93;82.67
4326;BME280;58429;49.826;10.880;2022-11-11T02:20:42;100187;;;3.93;82.68
4326;BME280;58429;49.826;10.880;2022-11-11T02:21:44;100189;;;3.9;82.67
4326;BME280;58429;49.826;10.880;2022-11-11T02:22:43;100187;;;3.94;82.7
4326;BME280;58429;49.826;10.880;2022-11-11T02:23:42;100177;;;3.94;82.77
4326;BME280;58429;49.826;10.880;2022-11-11T02:24:42;100181;;;3.9;82.76
4326;BME280;58429;49.826;10.880;2022-11-11T02:25:43;100183;;;3.91;82.85
4326;BME280;58429;49.826;10.880;2022-11-11T02:26:42;100193;;;3.92;82.99
4326;BME280;58429;49.826;10.880;2022-11-11T02:27:42;100185;;;3.94;83.07
4326;BME280;58429;49.826;10.880;2022-11-11T02:28:42;100189;;;3.93;83.21
4326;BME280;58429;49.826;10.880;2022-11-11T02:29:42;100187;;;3.94;83.37
4326;BME280;58429;49.826;10.880;2022-11-11T02:30:42;100192;;;3.94;83.39
4326;BME280;58429;49.826;10.880;2022-11-11T02:31:42;100195;;;3.94;83.37
4326;BME280;58429;49.826;10.880;2022-11-11T02:32:42;100191;;;3.91;83.83
4326;BME280;58429;49.826;10.880;2022-11-11T02:33:42;100195;;;3.88;83.91
4326;BME280;58429;49.826;10.880;2022-11-11T02:34:42;100195;;;3.88;83.89
4326;BME280;58429;49.826;10.880;2022-11-11T02:35:42;100198;;;3.88;84.11
4326;BME280;58429;49.826;10.880;2022-11-11T02:36:42;100198;;;3.88;84
4326;BME280;58429;49.826;10.880;2022-11-11T02:37:42;100202;;;3.88;83.85
4326;BME280;58429;49.826;10.880;2022-11-11T02:38:42;100200;;;3.87;83.83
4326;BME280;58429;49.826;10.880;2022-11-11T02:39:43;100201;;;3.83;83.82
4326;BME280;58429;49.826;10.880;2022-11-11T02:40:43;100198;;;3.83;83.85
4326;BME280;58429;49.826;10.880;2022-11-11T02:41:43;100194;;;3.8;84.05
4326;BME280;58429;49.826;10.880;2022-11-11T02:42:42;100198;;;3.75;84.24
4326;BME280;58429;49.826;10.880;2022-11-11T02:43:42;100205;;;3.65;84.49
4326;BME280;58429;49.826;10.880;2022-11-11T02:44:42;100199;;;3.61;84.47
4326;BME280;58429;49.826;10.880;2022-11-11T02:45:42;100199;;;3.59;84.54
4326;BME280;58429;49.826;10.880;2022-11-11T02:46:42;100200;;;3.52;84.2
4326;BME280;58429;49.826;10.880;2022-11-11T02:47:42;100204;;;3.53;84.01
4326;BME280;58429;49.826;10.880;2022-11-11T02:48:42;100204;;;3.54;83.8
4326;BME280;58429;49.826;10.880;2022-11-11T02:49:42;100206;;;3.58;83.8
4326;BME280;58429;49.826;10.880;2022-11-11T02:50:42;100203;;;3.55;83.84
4326;BME280;58429;49.826;10.880;2022-11-11T02:51:42;100200;;;3.58;83.69
4326;BME280;58429;49.826;10.880;2022-11-11T02:52:42;100201;;;3.58;83.59
4326;BME280;58429;49.826;10.880;2022-11-11T02:53:42;100200;;;3.5;83.38
4326;BME280;58429;49.826;10.880;2022-11-11T02:54:42;100211;;;3.49;83.37
4326;BME280;58429;49.826;10.880;2022-11-11T02:55:42;100209;;;3.47;83.36
4326;BME280;58429;49.826;10.880;2022-11-11T02:56:42;100211;;;3.45;83.24
4326;BME280;58429;49.826;10.880;2022-11-11T02:57:42;100209;;;3.43;83.25
4326;BME280;58429;49.826;10.880;2022-11-11T02:58:42;100202;;;3.42;83.28
4326;BME280;58429;49.826;10.880;2022-11-11T02:59:42;100203;;;3.43;83.23
4326;BME280;58429;49.826;10.880;2022-11-11T03:00:42;100199;;;3.42;83.17
4326;BME280;58429;49.826;10.880;2022-11-11T03:01:42;100204;;;3.39;83.35
4326;BME280;58429;49.826;10.880;2022-11-11T03:02:42;100199;;;3.35;84.14
4326;BME280;58429;49.826;10.880;2022-11-11T03:03:42;100195;;;3.28;83.92
4326;BME280;58429;49.826;10.880;2022-11-11T03:04:42;100192;;;3.29;83.72
4326;BME280;58429;49.826;10.880;2022-11-11T03:05:42;100192;;;3.25;83.7
4326;BME280;58429;49.826;10.880;2022-11-11T03:06:42;100184;;;3.18;83.65
4326;BME280;58429;49.826;10.880;2022-11-11T03:07:42;100181;;;3.18;83.68
4326;BME280;58429;49.826;10.880;2022-11-11T03:08:42;100182;;;3.14;83.6
4326;BME280;58429;49.826;10.880;2022-11-11T03:09:42;100170;;;3.11;83.61
4326;BME280;58429;49.826;10.880;2022-11-11T03:10:42;100178;;;3.12;83.59
4326;BME280;58429;49.826;10.880;2022-11-11T03:11:42;100175;;;3.14;83.62
4326;BME280;58429;49.826;10.880;2022-11-11T03:12:42;100175;;;3.15;83.58
4326;BME280;58429;49.826;10.880;2022-11-11T03:13:42;100179;;;3.16;83.52
4326;BME280;58429;49.826;10.880;2022-11-11T03:14:42;100172;;;3.18;83.44
4326;BME280;58429;49.826;10.880;2022-11-11T03:15:42;100171;;;3.25;83.44
4326;BME280;58429;49.826;10.880;2022-11-11T03:16:42;100163;;;3.23;83.37
4326;BME280;58429;49.826;10.880;2022-11-11T03:17:42;100168;;;3.28;83.35
4326;BME280;58429;49.826;10.880;2022-11-11T03:18:42;100168;;;3.27;83.31
4326;BME280;58429;49.826;10.880;2022-11-11T03:19:42;100170;;;3.27;83.41
4326;BME280;58429;49.826;10.880;2022-11-11T03:20:44;100178;;;3.28;83.42
4326;BME280;58429;49.826;10.880;2022-11-11T03:21:42;100177;;;3.31;83.45
4326;BME280;58429;49.826;10.880;2022-11-11T03:22:42;100175;;;3.3;83.42
4326;BME280;58429;49.826;10.880;2022-11-11T03:23:42;100181;;;3.3;83.43
4326;BME280;58429;49.826;10.880;2022-11-11T03:24:42;100177;;;3.33;83.52
4326;BME280;58429;49.826;10.880;2022-11-11T03:25:43;100177;;;3.36;83.56
4326;BME280;58429;49.826;10.880;2022-11-11T03:26:42;100179;;;3.35;83.67
4326;BME280;58429;49.826;10.880;2022-11-11T03:27:42;100173;;;3.34;83.79
4326;BME280;58429;49.826;10.880;2022-11-11T03:28:42;100183;;;3.35;83.86
4326;BME280;58429;49.826;10.880;2022-11-11T03:29:42;100186;;;3.37;83.85
4326;BME280;58429;49.826;10.880;2022-11-11T03:30:42;100178;;;3.37;83.84
4326;BME280;58429;49.826;10.880;2022-11-11T03:31:42;100188;;;3.38;83.86
4326;BME280;58429;49.826;10.880;2022-11-11T03:32:42;100189;;;3.41;83.88
4326;BME280;58429;49.826;10.880;2022-11-11T03:33:42;100187;;;3.44;83.88
4326;BME280;58429;49.826;10.880;2022-11-11T03:34:42;100195;;;3.43;83.9
4326;BME280;58429;49.826;10.880;2022-11-11T03:35:42;100192;;;3.47;83.96
4326;BME280;58429;49.826;10.880;2022-11-11T03:36:42;100190;;;3.45;84
4326;BME280;58429;49.826;10.880;2022-11-11T03:37:42;100203;;;3.48;84.06
4326;BME280;58429;49.826;10.880;2022-11-11T03:38:42;100201;;;3.5;84.03
4326;BME280;58429;49.826;10.880;2022-11-11T03:39:42;100201;;;3.54;84.06
4326;BME280;58429;49.826;10.880;2022-11-11T03:40:42;100193;;;3.48;84.1
4326;BME280;58429;49.826;10.880;2022-11-11T03:41:42;100206;;;3.57;84.12
4326;BME280;58429;49.826;10.880;2022-11-11T03:42:42;100202;;;3.58;84.18
4326;BME280;58429;49.826;10.880;2022-11-11T03:43:42;100200;;;3.55;84.16
4326;BME280;58429;49.826;10.880;2022-11-11T03:44:42;100203;;;3.55;84.21
4326;BME280;58429;49.826;10.880;2022-11-11T03:45:42;100204;;;3.54;84.32
4326;BME280;58429;49.826;10.880;2022-11-11T03:46:42;100210;;;3.53;84.41
4326;BME280;58429;49.826;10.880;2022-11-11T03:47:42;100213;;;3.56;84.51
4326;BME280;58429;49.826;10.880;2022-11-11T03:48:42;100215;;;3.5;84.37
4326;BME280;58429;49.826;10.880;2022-11-11T03:49:42;100213;;;3.48;84.29
4326;BME280;58429;49.826;10.880;2022-11-11T03:50:42;100226;;;3.52;84.19
4326;BME280;58429;49.826;10.880;2022-11-11T03:51:42;100226;;;3.51;84.09
4326;BME280;58429;49.826;10.880;2022-11-11T03:52:42;100225;;;3.51;84.03
4326;BME280;58429;49.826;10.880;2022-11-11T03:53:42;100223;;;3.45;83.99
4326;BME280;58429;49.826;10.880;2022-11-11T03:54:42;100226;;;3.41;83.94
4326;BME280;58429;49.826;10.880;2022-11-11T03:55:42;100223;;;3.4;83.94
4326;BME280;58429;49.826;10.880;2022-11-11T03:56:42;100222;;;3.37;83.92
4326;BME280;58429;49.826;10.880;2022-11-11T03:57:42;100225;;;3.34;84.03
4326;BME280;58429;49.826;10.880;2022-11-11T03:58:42;100225;;;3.3;84.1
4326;BME280;58429;49.826;10.880;2022-11-11T03:59:42;100228;;;3.28;84.11
4326;BME280;58429;49.826;10.880;2022-11-11T04:00:42;100227;;;3.27;84.08
4326;BME280;58429;49.826;10.880;2022-11-11T04:01:42;100218;;;3.23;84.06
4326;BME280;58429;49.826;10.880;2022-11-11T04:02:42;100222;;;3.21;84.02
4326;BME280;58429;49.826;10.880;2022-11-11T04:03:42;100222;;;3.1;84.13
4326;BME280;58429;49.826;10.880;2022-11-11T04:04:42;100223;;;3.07;84.2
4326;BME280;58429;49.826;10.880;2022-11-11T04:05:42;100230;;;3.1;84.15
4326;BME280;58429;49.826;10.880;2022-11-11T04:06:42;100229;;;3.08;84.13
4326;BME280;58429;49.826;10.880;2022-11-11T04:07:42;100228;;;3.05;84.09
4326;BME280;58429;49.826;10.880;2022-11-11T04:08:42;100230;;;3.06;84.08
4326;BME280;58429;49.826;10.880;2022-11-11T04:09:42;100230;;;2.98;84.27
4326;BME280;58429;49.826;10.880;2022-11-11T04:10:42;100232;;;2.97;84.19
4326;BME280;58429;49.826;10.880;2022-11-11T04:11:42;100224;;;2.95;84.26
4326;BME280;58429;49.826;10.880;2022-11-11T04:12:42;100229;;;2.92;84.28
4326;BME280;58429;49.826;10.880;2022-11-11T04:13:43;100226;;;2.95;84.28
4326;BME280;58429;49.826;10.880;2022-11-11T04:14:42;100224;;;2.87;84.32
4326;BME280;58429;49.826;10.880;2022-11-11T04:15:42;100222;;;2.88;84.36
4326;BME280;58429;49.826;10.880;2022-11-11T04:16:43;100230;;;2.83;84.42
4326;BME280;58429;49.826;10.880;2022-11-11T04:17:42;100221;;;2.83;84.47
4326;BME280;58429;49.826;10.880;2022-11-11T04:18:42;100224;;;2.85;84.41
4326;BME280;58429;49.826;10.880;2022-11-11T04:19:42;100226;;;2.84;84.33
4326;BME280;58429;49.826;10.880;2022-11-11T04:20:42;100231;;;2.83;84.39
4326;BME280;58429;49.826;10.880;2022-11-11T04:21:42;100236;;;2.84;84.34
4326;BME280;58429;49.826;10.880;2022-11-11T04:22:42;100233;;;2.85;84.37
4326;BME280;58429;49.826;10.880;2022-11-11T04:23:42;100230;;;2.85;84.32
4326;BME280;58429;49.826;10.880;2022-11-11T04:24:42;100228;;;2.87;84.31
4326;BME280;58429;49.826;10.880;2022-11-11T04:25:42;100229;;;2.85;84.32
4326;BME280;58429;49.826;10.880;2022-11-11T04:26:42;100230;;;2.83;84.28
4326;BME280;58429;49.826;10.880;2022-11-11T04:27:42;100232;;;2.82;84.46
4326;BME280;58429;49.826;10.880;2022-11-11T04:28:42;100236;;;2.82;84.59
4326;BME280;58429;49.826;10.880;2022-11-11T04:29:42;100234;;;2.8;84.54
4326;BME280;58429;49.826;10.880;2022-11-11T04:30:42;100239;;;2.81;84.57
4326;BME280;58429;49.826;10.880;2022-11-11T04:31:42;100236;;;2.8;84.6
4326;BME280;58429;49.826;10.880;2022-11-11T04:32:43;100239;;;2.81;84.61
4326;BME280;58429;49.826;10.880;2022-11-11T04:33:42;100241;;;2.82;84.55
4326;BME280;58429;49.826;10.880;2022-11-11T04:34:42;100240;;;2.8;84.57
4326;BME280;58429;49.826;10.880;2022-11-11T04:35:42;100240;;;2.84;84.54
4326;BME280;58429;49.826;10.880;2022-11-11T04:36:42;100240;;;2.8;84.59
4326;BME280;58429;49.826;10.880;2022-11-11T04:37:43;100246;;;2.81;84.59
4326;BME280;58429;49.826;10.880;2022-11-11T04:38:42;100243;;;2.8;84.54
4326;BME280;58429;49.826;10.880;2022-11-11T04:39:42;100242;;;2.81;84.54
4326;BME280;58429;49.826;10.880;2022-11-11T04:40:42;100246;;;2.82;84.64
4326;BME280;58429;49.826;10.880;2022-11-11T04:41:42;100246;;;2.79;84.63
4326;BME280;58429;49.826;10.880;2022-11-11T04:42:42;100251;;;2.84;84.61
4326;BME280;58429;49.826;10.880;2022-11-11T04:43:42;100249;;;2.82;84.62
4326;BME280;58429;49.826;10.880;2022-11-11T04:44:42;100252;;;2.81;84.6
4326;BME280;58429;49.826;10.880;2022-11-11T04:45:42;100251;;;2.81;84.61
4326;BME280;58429;49.826;10.880;2022-11-11T04:46:42;100257;;;2.8;84.65
4326;BME280;58429;49.826;10.880;2022-11-11T04:47:58;100254;;;2.86;84.63
4326;BME280;58429;49.826;10.880;2022-11-11T04:48:42;100251;;;2.85;84.62
4326;BME280;58429;49.826;10.880;2022-11-11T04:49:42;100254;;;2.84;84.64
4326;BME280;58429;49.826;10.880;2022-11-11T04:50:42;100259;;;2.83;84.57
4326;BME280;58429;49.826;10.880;2022-11-11T04:51:42;100257;;;2.84;84.62
4326;BME280;58429;49.826;10.880;2022-11-11T04:52:42;100254;;;2.83;84.66
4326;BME280;58429;49.826;10.880;2022-11-11T04:53:42;100258;;;2.8;84.8
4326;BME280;58429;49.826;10.880;2022-11-11T04:54:42;100254;;;2.78;84.9
4326;BME280;58429;49.826;10.880;2022-11-11T04:55:42;100255;;;2.8;84.88
4326;BME280;58429;49.826;10.880;2022-11-11T04:56:42;100256;;;2.76;85.13
4326;BME280;58429;49.826;10.880;2022-11-11T04:57:42;100262;;;2.76;85.6
4326;BME280;58429;49.826;10.880;2022-11-11T04:58:42;100260;;;2.74;85.48
4326;BME280;58429;49.826;10.880;2022-11-11T04:59:42;100263;;;2.73;85.42
4326;BME280;58429;49.826;10.880;2022-11-11T05:00:42;100259;;;2.78;85.39
4326;BME280;58429;49.826;10.880;2022-11-11T05:01:42;100258;;;2.75;85.63
4326;BME280;58429;49.826;10.880;2022-11-11T05:02:42;100267;;;2.73;85.56
4326;BME280;58429;49.826;10.880;2022-11-11T05:03:42;100267;;;2.71;85.59
4326;BME280;58429;49.826;10.880;2022-11-11T05:04:42;100262;;;2.71;85.52
4326;BME280;58429;49.826;10.880;2022-11-11T05:05:43;100259;;;2.68;85.51
4326;BME280;58429;49.826;10.880;2022-11-11T05:06:42;100257;;;2.7;85.55
4326;BME280;58429;49.826;10.880;2022-11-11T05:07:42;100262;;;2.71;85.48
4326;BME280;58429;49.826;10.880;2022-11-11T05:08:43;100258;;;2.71;85.51
4326;BME280;58429;49.826;10.880;2022-11-11T05:09:42;100262;;;2.72;85.53
4326;BME280;58429;49.826;10.880;2022-11-11T05:10:42;100256;;;2.71;85.65
4326;BME280;58429;49.826;10.880;2022-11-11T05:11:42;100261;;;2.68;85.51
4326;BME280;58429;49.826;10.880;2022-11-11T05:12:45;100260;;;2.71;85.38
4326;BME280;58429;49.826;10.880;2022-11-11T05:13:42;100265;;;2.72;85.36
4326;BME280;58429;49.826;10.880;2022-11-11T05:14:42;100261;;;2.72;85.28
4326;BME280;58429;49.826;10.880;2022-11-11T05:15:42;100267;;;2.71;85.23
4326;BME280;58429;49.826;10.880;2022-11-11T05:16:43;100270;;;2.77;85.25
4326;BME280;58429;49.826;10.880;2022-11-11T05:17:42;100267;;;2.75;85.21
4326;BME280;58429;49.826;10.880;2022-11-11T05:18:42;100267;;;2.75;85.27
4326;BME280;58429;49.826;10.880;2022-11-11T05:19:42;100267;;;2.74;85.29
4326;BME280;58429;49.826;10.880;2022-11-11T05:20:46;100269;;;2.68;85.31
4326;BME280;58429;49.826;10.880;2022-11-11T05:21:42;100262;;;2.68;85.36
4326;BME280;58429;49.826;10.880;2022-11-11T05:22:42;100266;;;2.67;85.39
4326;BME280;58429;49.826;10.880;2022-11-11T05:23:42;100269;;;2.65;85.4
4326;BME280;58429;49.826;10.880;2022-11-11T05:24:42;100271;;;2.71;85.43
4326;BME280;58429;49.826;10.880;2022-11-11T05:25:42;100268;;;2.68;85.35
4326;BME280;58429;49.826;10.880;2022-11-11T05:26:42;100270;;;2.7;85.31
4326;BME280;58429;49.826;10.880;2022-11-11T05:27:42;100275;;;2.71;85.23
4326;BME280;58429;49.826;10.880;2022-11-11T05:28:42;100275;;;2.68;85.25
4326;BME280;58429;49.826;10.880;2022-11-11T05:29:42;100272;;;2.69;85.21
4326;BME280;58429;49.826;10.880;2022-11-11T05:30:42;100272;;;2.74;85.17
4326;BME280;58429;49.826;10.880;2022-11-11T05:31:42;100278;;;2.75;85.13